Time;durP1;ratioP1;P1;durP2;ratioP2;P2;SDS_P1;SDS_P2;PMS_P1;PMS_P2;Temp;Humidity;BMP_temperature;BMP_pressure;BME280_temperature;BME280_humidity;BME280_pressure;Samples;Min_cycle;Max_cycle;Signal;HPM_P1;HPM_P2
2022/07/21 00:01:55;;;;;;;17.57;15.80;;;21.40;99.90;;;;;;5096274;28;20530;-73
2022/07/21 00:04:23;;;;;;;18.90;16.93;;;21.40;99.90;;;;;;5096230;28;20455;-73
2022/07/21 00:06:50;;;;;;;29.93;17.27;;;21.40;99.90;;;;;;5096229;28;20455;-74
2022/07/21 00:09:18;;;;;;;17.77;15.90;;;21.40;99.90;;;;;;5096296;28;20789;-73
2022/07/21 00:11:45;;;;;;;18.70;16.87;;;21.30;99.90;;;;;;5095729;28;20941;-73
2022/07/21 00:14:13;;;;;;;18.33;16.60;;;21.20;99.90;;;;;;5095914;28;20885;-74
2022/07/21 00:16:42;;;;;;;19.00;16.37;;;21.20;99.90;;;;;;5095847;28;20443;-74
2022/07/21 00:19:10;;;;;;;17.20;15.60;;;21.20;99.90;;;;;;5096157;28;20482;-73
2022/07/21 00:21:38;;;;;;;18.43;16.53;;;21.20;99.90;;;;;;5095655;28;20452;-73
2022/07/21 00:24:05;;;;;;;20.00;18.03;;;21.10;99.90;;;;;;5095774;28;20450;-73
2022/07/21 00:26:33;;;;;;;19.03;17.23;;;21.00;99.90;;;;;;5096023;28;20531;-73
2022/07/21 00:29:00;;;;;;;19.87;17.83;;;21.00;99.90;;;;;;5095777;28;20547;-73
2022/07/21 00:31:29;;;;;;;17.20;15.60;;;21.00;99.90;;;;;;5095039;28;20570;-73
2022/07/21 00:33:56;;;;;;;17.87;16.27;;;20.90;99.90;;;;;;5095896;28;20451;-73
2022/07/21 00:36:23;;;;;;;17.40;15.73;;;21.00;99.90;;;;;;5095629;28;20459;-73
2022/07/21 00:38:50;;;;;;;17.00;15.50;;;21.00;99.90;;;;;;5095584;28;20961;-74
2022/07/21 00:41:18;;;;;;;16.60;14.90;;;21.00;99.90;;;;;;5095687;28;20798;-73
2022/07/21 00:43:45;;;;;;;18.90;16.43;;;21.10;99.90;;;;;;5094981;28;20475;-74
2022/07/21 00:46:12;;;;;;;17.33;15.70;;;21.10;99.90;;;;;;5095471;28;20470;-73
2022/07/21 00:48:41;;;;;;;16.53;14.80;;;21.20;99.90;;;;;;5095375;28;20454;-74
2022/07/21 01:41:34;;;;;;;24.23;16.03;;;20.80;99.90;;;;;;5090424;28;20772;-68
2022/07/21 01:44:04;;;;;;;16.77;15.07;;;21.10;99.90;;;;;;5070188;28;20923;-68
2022/07/21 01:46:33;;;;;;;15.67;14.07;;;21.00;99.90;;;;;;5070194;28;20480;-68
2022/07/21 01:49:01;;;;;;;17.53;15.73;;;20.90;99.90;;;;;;5069702;28;21072;-67
2022/07/21 01:51:28;;;;;;;17.33;14.03;;;20.90;99.90;;;;;;5069851;28;20551;-67
2022/07/21 01:53:56;;;;;;;13.90;12.57;;;21.00;99.90;;;;;;5070063;28;20491;-67
2022/07/21 01:56:24;;;;;;;14.60;13.20;;;20.90;99.90;;;;;;5069905;28;20485;-67
2022/07/21 01:58:58;;;;;;;15.23;13.83;;;20.90;99.90;;;;;;5070246;28;20433;-67
2022/07/21 02:01:28;;;;;;;15.00;13.60;;;20.90;99.90;;;;;;5069774;28;20463;-68
2022/07/21 02:03:56;;;;;;;17.00;12.80;;;20.90;99.90;;;;;;5069559;28;20452;-68
2022/07/21 02:06:23;;;;;;;19.00;13.70;;;20.90;99.90;;;;;;5069885;28;20448;-68
2022/07/21 02:08:51;;;;;;;14.50;13.20;;;21.00;99.90;;;;;;5069737;28;20494;-67
2022/07/21 02:11:18;;;;;;;14.33;12.90;;;20.90;99.90;;;;;;5069341;28;20468;-68
2022/07/21 02:13:46;;;;;;;16.67;13.23;;;20.80;99.90;;;;;;5069648;28;20448;-67
2022/07/21 02:16:14;;;;;;;15.03;13.50;;;20.90;99.90;;;;;;5069428;28;20940;-68
2022/07/21 02:18:42;;;;;;;14.77;13.30;;;20.80;99.90;;;;;;5069497;28;20452;-68
2022/07/21 02:21:09;;;;;;;14.67;13.37;;;20.80;99.90;;;;;;5069371;28;20460;-68
2022/07/21 02:23:36;;;;;;;15.53;13.90;;;20.70;99.90;;;;;;5069560;28;20453;-68
2022/07/21 02:26:04;;;;;;;14.77;13.50;;;20.80;99.90;;;;;;5068970;28;20444;-68
2022/07/21 02:28:31;;;;;;;15.60;13.93;;;20.70;99.90;;;;;;5069031;28;20482;-67
2022/07/21 02:30:58;;;;;;;13.63;12.40;;;20.70;99.90;;;;;;5069114;28;20476;-68
2022/07/21 02:33:26;;;;;;;14.53;13.03;;;20.70;99.90;;;;;;5069187;28;20449;-69
2022/07/21 02:35:53;;;;;;;14.87;13.57;;;20.70;99.90;;;;;;5068765;28;20457;-68
2022/07/21 02:38:21;;;;;;;14.90;13.30;;;20.80;99.90;;;;;;5069210;28;20460;-68
2022/07/21 02:40:48;;;;;;;14.50;13.27;;;20.80;99.90;;;;;;5063949;28;20496;-68
2022/07/21 02:43:15;;;;;;;13.03;11.93;;;20.70;99.90;;;;;;5055808;28;20444;-68
2022/07/21 02:45:43;;;;;;;14.80;12.10;;;20.70;99.90;;;;;;5055894;28;20449;-67
2022/07/21 02:48:12;;;;;;;12.27;11.20;;;20.70;99.90;;;;;;5055707;28;20453;-68
2022/07/21 02:50:42;;;;;;;14.10;11.70;;;20.70;99.90;;;;;;5055207;28;21028;-67
2022/07/21 02:53:11;;;;;;;13.57;12.33;;;20.70;99.90;;;;;;5055400;28;20437;-67
2022/07/21 02:55:38;;;;;;;11.83;10.73;;;20.70;99.90;;;;;;5055725;28;20451;-67
2022/07/21 02:58:11;;;;;;;13.20;12.00;;;20.70;99.90;;;;;;5055547;28;20453;-67
2022/07/21 03:00:41;;;;;;;12.60;11.40;;;20.70;99.90;;;;;;5055428;28;20469;-67
2022/07/21 03:03:09;;;;;;;12.63;11.47;;;20.70;99.90;;;;;;5055529;28;20449;-68
2022/07/21 03:05:36;;;;;;;12.20;10.80;;;20.70;99.90;;;;;;5055344;28;20453;-67
2022/07/21 03:08:06;;;;;;;12.80;11.60;;;20.80;99.90;;;;;;5055337;28;20457;-67
2022/07/21 03:10:34;;;;;;;12.03;10.90;;;20.80;99.90;;;;;;5055445;28;20516;-67
2022/07/21 03:13:01;;;;;;;14.63;13.40;;;20.70;99.90;;;;;;5055025;28;20449;-68
2022/07/21 03:15:28;;;;;;;13.77;12.20;;;20.80;99.90;;;;;;5054931;28;20452;-68
2022/07/21 03:17:56;;;;;;;15.03;13.67;;;20.80;99.90;;;;;;5055130;28;20456;-68
2022/07/21 03:20:26;;;;;;;14.00;12.70;;;20.80;99.90;;;;;;5054883;28;20961;-68
2022/07/21 03:22:53;;;;;;;13.57;11.97;;;20.70;99.90;;;;;;5054867;28;20445;-68
2022/07/21 03:25:30;;;;;;;12.80;11.50;;;20.80;99.90;;;;;;5055244;28;20460;-67
2022/07/21 03:27:57;;;;;;;12.87;11.63;;;20.80;99.90;;;;;;5055404;28;20434;-68
2022/07/21 03:30:26;;;;;;;10.97;9.97;;;20.70;99.90;;;;;;5054959;28;20496;-67
2022/07/21 03:32:53;;;;;;;12.30;11.10;;;20.60;99.90;;;;;;5054726;28;20449;-68
2022/07/21 03:35:21;;;;;;;14.60;11.10;;;20.70;99.90;;;;;;5054691;28;20457;-66
2022/07/21 03:37:50;;;;;;;12.20;11.20;;;20.70;99.90;;;;;;5055125;28;20454;-67
2022/07/21 03:40:22;;;;;;;13.07;10.97;;;20.70;99.90;;;;;;5054464;28;20492;-67
2022/07/21 03:42:52;;;;;;;11.47;10.30;;;20.80;99.90;;;;;;5054777;28;20434;-67
2022/07/21 03:45:19;;;;;;;12.03;10.93;;;20.80;99.90;;;;;;5054945;28;20479;-67
2022/07/21 03:47:46;;;;;;;14.60;11.80;;;20.80;99.90;;;;;;5054439;28;20453;-68
2022/07/21 03:50:14;;;;;;;13.73;11.60;;;20.80;99.90;;;;;;5054611;28;20496;-67
2022/07/21 03:52:41;;;;;;;12.93;11.73;;;20.80;99.90;;;;;;5053464;28;20453;-67
2022/07/21 03:55:09;;;;;;;14.43;12.03;;;20.80;99.90;;;;;;5054362;28;20789;-67
2022/07/21 03:57:38;;;;;;;12.33;11.23;;;20.60;99.90;;;;;;5054780;28;20773;-67
2022/07/21 04:00:10;;;;;;;13.20;11.70;;;20.60;99.90;;;;;;5054263;28;20460;-67
2022/07/21 04:02:37;;;;;;;15.97;14.47;;;20.70;99.90;;;;;;5054563;28;20757;-67
2022/07/21 04:05:05;;;;;;;17.63;13.07;;;20.70;99.90;;;;;;5054130;28;20452;-67
2022/07/21 04:07:32;;;;;;;15.37;12.40;;;20.70;99.90;;;;;;5054336;28;20449;-67
2022/07/21 04:09:59;;;;;;;13.73;11.67;;;20.60;99.90;;;;;;5054363;28;20574;-67
2022/07/21 04:12:27;;;;;;;16.40;14.63;;;20.40;99.90;;;;;;5054302;28;20445;-68
2022/07/21 04:14:54;;;;;;;14.97;13.30;;;20.50;99.90;;;;;;5053888;28;20445;-67
2022/07/21 04:17:23;;;;;;;14.90;13.60;;;20.40;99.90;;;;;;5054344;28;20452;-69
2022/07/21 04:19:51;;;;;;;15.33;13.83;;;20.40;99.90;;;;;;5054040;28;20465;-68
2022/07/21 04:22:18;;;;;;;17.73;14.57;;;20.30;99.90;;;;;;5054117;28;20452;-68
2022/07/21 04:24:45;;;;;;;15.47;14.00;;;20.30;99.90;;;;;;5054169;28;20473;-68
2022/07/21 04:27:12;;;;;;;15.33;13.90;;;20.40;99.90;;;;;;5053777;28;20932;-68
2022/07/21 04:29:39;;;;;;;15.10;13.57;;;20.30;99.90;;;;;;5053536;28;20926;-67
2022/07/21 04:32:06;;;;;;;15.87;14.37;;;20.30;99.90;;;;;;5053720;28;20445;-67
2022/07/21 04:34:35;;;;;;;15.23;13.53;;;20.30;99.90;;;;;;5053499;28;20444;-68
2022/07/21 04:37:02;;;;;;;17.20;15.40;;;20.30;99.90;;;;;;5053842;28;20453;-67
2022/07/21 04:39:29;;;;;;;16.07;14.37;;;20.30;99.90;;;;;;5053323;28;20976;-67
2022/07/21 04:41:57;;;;;;;17.40;15.60;;;20.40;99.90;;;;;;5053878;28;20433;-67
2022/07/21 04:44:24;;;;;;;16.20;14.70;;;20.40;99.90;;;;;;5053723;28;20815;-67
2022/07/21 04:46:51;;;;;;;17.63;15.80;;;20.40;99.90;;;;;;5053220;28;20449;-67
2022/07/21 04:49:18;;;;;;;16.90;15.20;;;20.40;99.90;;;;;;5053673;28;20548;-67
2022/07/21 04:51:47;;;;;;;15.30;13.90;;;20.50;99.90;;;;;;5053417;28;20563;-67
2022/07/21 04:54:14;;;;;;;16.43;14.93;;;20.50;99.90;;;;;;5053441;28;20539;-66
2022/07/21 04:56:42;;;;;;;16.70;15.03;;;20.40;99.90;;;;;;5053595;28;20453;-67
2022/07/21 04:59:10;;;;;;;18.73;15.50;;;20.60;99.90;;;;;;5053395;28;20472;-67
2022/07/21 05:01:38;;;;;;;17.37;15.30;;;20.60;99.90;;;;;;5053356;28;20492;-68
2022/07/21 05:04:06;;;;;;;14.50;13.00;;;20.60;99.90;;;;;;5052914;28;20532;-67
2022/07/21 05:06:34;;;;;;;14.83;13.27;;;20.60;99.90;;;;;;5053124;28;20520;-67
2022/07/21 05:09:03;;;;;;;15.40;13.77;;;20.60;99.90;;;;;;5053042;28;20555;-67
2022/07/21 05:11:30;;;;;;;16.17;14.43;;;20.70;99.90;;;;;;5053297;28;20480;-67
2022/07/21 05:13:58;;;;;;;15.53;12.97;;;20.60;99.90;;;;;;5052878;28;20484;-67
2022/07/21 05:16:25;;;;;;;14.23;12.80;;;20.70;99.90;;;;;;5053193;28;20544;-68
2022/07/21 05:18:52;;;;;;;14.60;13.13;;;20.70;99.90;;;;;;5053012;28;20453;-67
2022/07/21 05:21:19;;;;;;;13.90;12.60;;;20.70;99.90;;;;;;5053031;28;20544;-68
2022/07/21 05:23:47;;;;;;;15.00;12.20;;;20.70;99.90;;;;;;5052601;28;20504;-68
2022/07/21 05:26:15;;;;;;;16.23;13.80;;;20.70;99.90;;;;;;5052879;28;21020;-67
2022/07/21 05:28:43;;;;;;;15.70;14.20;;;20.70;99.90;;;;;;5053041;28;20523;-68
2022/07/21 05:31:10;;;;;;;12.73;11.63;;;20.80;99.90;;;;;;5052648;28;20545;-67
2022/07/21 05:33:37;;;;;;;14.73;13.23;;;20.80;99.90;;;;;;5052826;28;20441;-67
2022/07/21 05:36:05;;;;;;;13.30;12.00;;;21.00;99.90;;;;;;5053283;28;20449;-68
2022/07/21 05:38:34;;;;;;;15.03;13.63;;;21.00;99.90;;;;;;5052306;28;20485;-68
2022/07/21 05:41:02;;;;;;;13.93;12.47;;;21.00;99.90;;;;;;5052316;28;20564;-67
2022/07/21 05:43:32;;;;;;;12.97;11.67;;;21.20;99.90;;;;;;5052513;28;20493;-67
2022/07/21 05:45:59;;;;;;;15.30;11.50;;;21.20;99.90;;;;;;5052236;28;20485;-67
2022/07/21 05:48:26;;;;;;;13.03;11.73;;;21.30;99.90;;;;;;5052128;28;20452;-67
2022/07/21 05:50:54;;;;;;;15.93;13.83;;;21.30;99.90;;;;;;5052107;28;20580;-67
2022/07/21 05:53:22;;;;;;;13.00;11.70;;;21.40;99.90;;;;;;5052071;28;20545;-66
2022/07/21 05:55:49;;;;;;;13.27;12.07;;;21.40;99.90;;;;;;5052122;28;20449;-67
2022/07/21 05:58:18;;;;;;;13.30;12.00;;;21.50;99.90;;;;;;5052767;28;20456;-67
2022/07/21 06:01:07;;;;;;;16.60;12.63;;;21.60;99.90;;;;;;5052504;28;20465;-67
2022/07/21 06:03:35;;;;;;;13.77;12.47;;;21.60;99.90;;;;;;5052865;28;20461;-67
2022/07/21 06:06:02;;;;;;;13.33;12.00;;;21.60;99.90;;;;;;5052449;28;20859;-67
2022/07/21 06:08:29;;;;;;;17.10;13.23;;;21.70;99.90;;;;;;5052291;28;20453;-67
2022/07/21 06:10:56;;;;;;;17.53;12.90;;;21.80;99.90;;;;;;5052304;28;20483;-67
2022/07/21 06:13:28;;;;;;;15.03;13.53;;;21.70;99.90;;;;;;5052046;28;20536;-67
2022/07/21 06:15:57;;;;;;;12.97;11.80;;;21.80;99.90;;;;;;5052804;28;20477;-67
2022/07/21 06:18:24;;;;;;;11.20;10.03;;;21.80;99.90;;;;;;5055956;28;20449;-67
2022/07/21 06:20:51;;;;;;;10.97;9.87;;;21.70;99.90;;;;;;5055974;28;20491;-67
2022/07/21 06:23:19;;;;;;;11.97;10.43;;;21.70;99.90;;;;;;5056110;28;20536;-67
2022/07/21 06:25:46;;;;;;;13.20;11.97;;;21.70;99.90;;;;;;5055954;28;20511;-67
2022/07/21 06:28:13;;;;;;;11.37;10.37;;;21.90;99.90;;;;;;5055879;28;20449;-67
2022/07/21 06:30:41;;;;;;;19.13;12.87;;;22.00;99.90;;;;;;5055464;28;20528;-66
2022/07/21 06:33:10;;;;;;;11.17;9.90;;;22.00;99.90;;;;;;5055956;28;20456;-66
2022/07/21 06:35:37;;;;;;;10.23;9.33;;;22.10;99.90;;;;;;5055534;28;21010;-67
2022/07/21 06:38:05;;;;;;;11.30;10.20;;;22.20;99.90;;;;;;5055951;28;20821;-67
2022/07/21 06:40:33;;;;;;;11.87;10.67;;;22.30;99.90;;;;;;5055136;28;20486;-67
2022/07/21 06:43:00;;;;;;;12.30;11.07;;;22.30;99.90;;;;;;5055397;28;20445;-67
2022/07/21 06:45:27;;;;;;;11.23;10.10;;;22.40;99.90;;;;;;5055187;28;20445;-67
2022/07/21 06:48:01;;;;;;;10.53;9.50;;;22.20;99.90;;;;;;5055509;28;20453;-68
2022/07/21 06:50:30;;;;;;;10.97;9.97;;;22.20;99.90;;;;;;5055538;28;20466;-67
2022/07/21 06:52:57;;;;;;;12.00;10.27;;;22.20;99.90;;;;;;5055058;28;20508;-68
2022/07/21 06:55:25;;;;;;;11.30;10.20;;;22.40;99.90;;;;;;5054959;28;20484;-67
2022/07/21 06:57:52;;;;;;;11.37;10.37;;;22.20;99.90;;;;;;5055269;28;20453;-67
2022/07/21 07:00:20;;;;;;;11.03;10.13;;;22.20;99.90;;;;;;5054842;28;20464;-67
2022/07/21 07:02:47;;;;;;;11.30;10.20;;;22.40;99.90;;;;;;5054865;28;20631;-67
2022/07/21 07:05:14;;;;;;;11.87;10.57;;;22.50;99.90;;;;;;5055272;28;20453;-67
2022/07/21 07:07:43;;;;;;;11.87;10.87;;;22.70;99.90;;;;;;5055029;28;20484;-68
2022/07/21 07:10:11;;;;;;;11.43;10.23;;;22.50;99.90;;;;;;5055059;28;21027;-67
2022/07/21 07:12:38;;;;;;;12.17;10.97;;;22.60;99.90;;;;;;5055044;28;20485;-67
2022/07/21 07:15:06;;;;;;;12.40;9.10;;;22.60;99.90;;;;;;5055270;28;20503;-68
2022/07/21 07:17:33;;;;;;;10.37;9.37;;;22.60;99.90;;;;;;5054819;28;20532;-67
2022/07/21 07:20:01;;;;;;;13.27;9.77;;;22.70;99.90;;;;;;5054681;28;20496;-68
2022/07/21 07:22:28;;;;;;;11.33;10.13;;;22.70;99.90;;;;;;5054370;28;20532;-68
2022/07/21 07:24:56;;;;;;;10.77;9.73;;;22.80;99.90;;;;;;5054223;28;20887;-68
2022/07/21 07:27:24;;;;;;;11.10;9.90;;;23.00;99.90;;;;;;5054145;28;20438;-67
2022/07/21 07:29:51;;;;;;;10.80;9.80;;;23.40;99.90;;;;;;5054765;28;20492;-67
2022/07/21 07:32:18;;;;;;;10.40;9.50;;;24.10;99.90;;;;;;5053675;28;20508;-67
2022/07/21 07:34:45;;;;;;;10.77;9.77;;;25.10;99.90;;;;;;5054147;28;20524;-66
2022/07/21 07:37:12;;;;;;;9.47;8.50;;;25.40;99.90;;;;;;5054254;28;20535;-67
2022/07/21 07:39:40;;;;;;;10.37;8.87;;;24.80;99.90;;;;;;5053844;28;20579;-67
2022/07/21 07:42:09;;;;;;;11.13;9.30;;;24.50;99.90;;;;;;5053888;28;20433;-67
2022/07/21 07:44:36;;;;;;;9.07;8.17;;;25.20;99.90;;;;;;5054210;28;20449;-67
2022/07/21 07:47:03;;;;;;;9.23;8.43;;;26.00;99.90;;;;;;5054005;28;20628;-66
2022/07/21 07:49:31;;;;;;;10.17;9.23;;;26.20;99.90;;;;;;5054161;28;20465;-67
2022/07/21 07:51:59;;;;;;;9.13;8.20;;;26.40;99.90;;;;;;5054114;28;20480;-67
2022/07/21 07:54:26;;;;;;;9.30;8.50;;;26.60;99.90;;;;;;5054017;28;21027;-67
2022/07/21 07:56:53;;;;;;;8.77;8.07;;;27.00;99.90;;;;;;5054046;28;20449;-67
2022/07/21 07:59:22;;;;;;;8.37;7.57;;;27.40;99.90;;;;;;5053595;28;21016;-67
2022/07/21 08:01:49;;;;;;;11.80;8.37;;;28.00;99.90;;;;;;5053963;28;20499;-66
2022/07/21 08:04:16;;;;;;;8.63;7.93;;;28.30;99.90;;;;;;5053640;28;20461;-65
2022/07/21 08:06:43;;;;;;;8.23;7.53;;;28.20;99.90;;;;;;5054012;28;20544;-67
2022/07/21 08:09:11;;;;;;;9.90;9.00;;;29.00;99.90;;;;;;5053746;28;20935;-67
2022/07/21 08:11:38;;;;;;;7.80;7.10;;;;;;;;;;5053672;28;20519;-66
2022/07/21 08:14:05;;;;;;;8.50;7.73;;;29.70;99.90;;;;;;5053527;28;20939;-67
2022/07/21 08:16:36;;;;;;;12.77;7.67;;;29.30;99.90;;;;;;5053529;28;20519;-68
2022/07/21 08:19:03;;;;;;;8.70;7.97;;;29.40;99.90;;;;;;5053720;28;20437;-68
2022/07/21 08:21:30;;;;;;;7.67;6.90;;;28.60;99.90;;;;;;5053642;28;20448;-68
2022/07/21 08:23:58;;;;;;;6.70;6.13;;;27.80;99.90;;;;;;5053278;28;20453;-68
2022/07/21 08:26:26;;;;;;;8.30;7.60;;;28.00;99.90;;;;;;5053019;28;20455;-67
2022/07/21 08:28:53;;;;;;;8.73;7.20;;;27.70;99.90;;;;;;5053285;28;20527;-67
2022/07/21 08:31:21;;;;;;;8.20;7.50;;;27.30;99.90;;;;;;5052922;28;20492;-67
2022/07/21 08:33:49;;;;;;;8.00;7.10;;;26.70;99.90;;;;;;5053405;28;20533;-67
2022/07/21 08:36:17;;;;;;;9.80;7.30;;;26.70;99.90;;;;;;5052916;28;20858;-68
2022/07/21 08:38:44;;;;;;;7.50;6.80;;;27.30;99.90;;;;;;5052614;28;20488;-68
2022/07/21 08:41:12;;;;;;;8.43;7.57;;;28.00;99.90;;;;;;5052968;28;20485;-68
2022/07/21 08:43:39;;;;;;;7.70;7.10;;;27.90;99.90;;;;;;5053187;28;20445;-68
2022/07/21 08:46:07;;;;;;;8.30;7.70;;;27.80;99.90;;;;;;5052751;28;20481;-68
2022/07/21 08:48:34;;;;;;;7.43;6.73;;;27.50;99.90;;;;;;5053281;28;20445;-68
2022/07/21 08:51:03;;;;;;;7.53;6.83;;;27.10;99.90;;;;;;5052676;28;20471;-68
2022/07/21 08:53:30;;;;;;;8.40;7.00;;;26.50;99.90;;;;;;5052557;28;20540;-68
2022/07/21 08:55:57;;;;;;;9.60;6.90;;;27.00;99.90;;;;;;5052891;28;20449;-67
2022/07/21 08:58:24;;;;;;;8.70;7.90;;;27.90;99.90;;;;;;5052784;28;20473;-68
2022/07/21 09:00:52;;;;;;;7.63;6.67;;;28.50;99.90;;;;;;5052428;28;20556;-68
2022/07/21 09:03:21;;;;;;;9.03;6.93;;;29.30;99.90;;;;;;5052462;28;20453;-67
2022/07/21 09:06:06;;;;;;;9.27;8.37;;;29.40;99.90;;;;;;5052724;28;20536;-67
2022/07/21 09:08:36;;;;;;;7.07;6.47;;;29.10;99.90;;;;;;5052326;28;20901;-68
2022/07/21 09:11:12;;;;;;;7.13;6.53;;;28.70;99.90;;;;;;5052413;28;20508;-67
2022/07/21 09:13:39;;;;;;;7.87;6.57;;;28.50;99.90;;;;;;5052677;28;20477;-68
2022/07/21 09:16:07;;;;;;;10.07;8.00;;;28.70;99.00;;;;;;5052437;28;20530;-67
2022/07/21 09:18:35;;;;;;;8.53;7.67;;;28.20;99.90;;;;;;5052435;28;20536;-68
2022/07/21 09:21:02;;;;;;;9.63;6.53;;;28.40;99.90;;;;;;5051894;28;20471;-68
2022/07/21 09:23:30;;;;;;;7.10;6.40;;;28.80;99.90;;;;;;5052290;28;20437;-68
2022/07/21 09:25:59;;;;;;;6.77;6.20;;;28.90;98.30;;;;;;5052428;28;20481;-68
2022/07/21 09:28:28;;;;;;;6.20;5.70;;;29.40;99.20;;;;;;5052066;28;20465;-68
2022/07/21 09:30:59;;;;;;;6.50;5.77;;;29.70;96.20;;;;;;5052157;28;20512;-68
2022/07/21 09:33:32;;;;;;;5.93;5.40;;;29.50;94.10;;;;;;5052434;28;20554;-68
2022/07/21 09:36:05;;;;;;;6.43;5.83;;;30.10;95.60;;;;;;5052370;28;20479;-68
2022/07/21 09:38:35;;;;;;;6.83;6.30;;;30.80;96.20;;;;;;5052130;28;20452;-69
2022/07/21 09:41:14;;;;;;;7.17;6.57;;;30.90;93.50;;;;;;5051744;28;21064;-68
2022/07/21 09:43:43;;;;;;;6.23;5.73;;;30.60;93.90;;;;;;5052505;28;20433;-68
2022/07/21 09:46:14;;;;;;;6.47;5.97;;;30.80;91.20;;;;;;5052402;28;20455;-68
2022/07/21 09:48:43;;;;;;;6.37;5.77;;;30.50;91.60;;;;;;5052441;28;20980;-68
2022/07/21 09:51:28;;;;;;;6.43;5.93;;;30.20;92.70;;;;;;5053355;28;20465;-69
2022/07/21 09:54:02;;;;;;;5.97;5.53;;;30.30;92.60;;;;;;5055942;28;20433;-67
2022/07/21 09:56:34;;;;;;;6.87;6.17;;;29.80;91.90;;;;;;5056162;28;20904;-68
2022/07/21 09:59:02;;;;;;;6.57;6.00;;;29.70;93.60;;;;;;5055875;28;20844;-68
2022/07/21 10:01:30;;;;;;;7.03;6.43;;;29.70;93.30;;;;;;5055971;28;20518;-69
2022/07/21 10:03:59;;;;;;;5.93;5.27;;;30.00;93.50;;;;;;5055939;28;20447;-69
2022/07/21 10:06:29;;;;;;;6.53;5.93;;;30.60;92.30;;;;;;5055860;28;20776;-68
2022/07/21 10:08:58;;;;;;;5.60;5.20;;;31.20;90.70;;;;;;5056182;28;20491;-68
2022/07/21 10:11:27;;;;;;;7.20;6.40;;;30.20;88.00;;;;;;5055565;28;20472;-69
2022/07/21 10:13:54;;;;;;;5.53;5.10;;;30.30;90.70;;;;;;5055669;28;20995;-68
2022/07/21 10:16:22;;;;;;;5.17;4.67;;;31.60;88.30;;;;;;5055485;28;20895;-69
2022/07/21 10:19:01;;;;;;;5.90;5.30;;;31.60;87.00;;;;;;5055688;28;20536;-69
2022/07/21 10:21:37;;;;;;;5.43;4.90;;;32.70;79.90;;;;;;5055379;28;20469;-68
2022/07/21 10:24:05;;;;;;;6.57;5.10;;;31.40;83.30;;;;;;5055884;28;20440;-69
2022/07/21 10:26:34;;;;;;;6.03;5.43;;;31.60;83.30;;;;;;5055488;28;20451;-69
2022/07/21 10:29:01;;;;;;;6.50;5.80;;;31.80;86.10;;;;;;5055410;28;20453;-69
2022/07/21 10:31:29;;;;;;;6.17;5.67;;;32.20;85.10;;;;;;5055408;28;20461;-69
2022/07/21 10:33:59;;;;;;;6.17;5.77;;;32.60;85.20;;;;;;5055804;28;20846;-68
2022/07/21 10:36:56;;;;;;;6.23;5.73;;;32.70;84.20;;;;;;5055272;28;20808;-69
2022/07/21 10:39:26;;;;;;;5.13;4.73;;;32.60;85.60;;;;;;4974294;28;20485;-69
2022/07/21 10:41:59;;;;;;;5.50;5.00;;;33.10;82.10;;;;;;5037362;28;20527;-69
2022/07/21 10:44:42;;;;;;;5.20;4.80;;;32.90;75.90;;;;;;5055447;28;20460;-69
2022/07/21 10:47:11;;;;;;;4.40;4.10;;;32.80;74.90;;;;;;5053486;28;20491;-68
2022/07/21 10:49:51;;;;;;;4.90;4.60;;;33.40;68.80;;;;;;5055254;28;20464;-70
2022/07/21 10:52:58;;;;;;;5.17;4.07;;;33.70;70.30;;;;;;5055056;28;20504;-69
2022/07/21 10:55:27;;;;;;;4.60;4.20;;;34.10;67.70;;;;;;5032324;28;20523;-69
2022/07/21 10:58:16;;;;;;;4.33;4.03;;;33.80;68.00;;;;;;5055107;28;20817;-69
2022/07/21 11:00:49;;;;;;;6.13;4.30;;;34.00;70.40;;;;;;5055468;28;20468;-68
2022/07/21 11:03:26;;;;;;;5.10;4.63;;;33.90;64.80;;;;;;5054738;28;20440;-68
2022/07/21 11:06:30;;;;;;;4.60;4.10;;;33.60;65.10;;;;;;5054771;28;20441;-69
2022/07/21 11:09:11;;;;;;;4.30;4.00;;;33.50;67.10;;;;;;5055384;28;20452;-69
2022/07/21 11:11:58;;;;;;;5.47;4.97;;;34.60;64.10;;;;;;5054980;28;20432;-68
2022/07/21 11:14:39;;;;;;;4.77;4.27;;;34.60;66.70;;;;;;5055221;28;20433;-68
2022/07/21 11:17:06;;;;;;;4.83;4.43;;;34.40;64.50;;;;;;5054897;28;20426;-68
2022/07/21 11:19:39;;;;;;;10.00;4.60;;;34.30;65.70;;;;;;5054827;28;20814;-68
2022/07/21 11:22:11;;;;;;;4.47;4.07;;;34.50;67.20;;;;;;5054849;28;20432;-69
2022/07/21 11:24:39;;;;;;;3.90;3.60;;;34.90;63.90;;;;;;5054838;28;20429;-69
2022/07/21 11:27:08;;;;;;;5.50;4.30;;;34.30;62.20;;;;;;5054611;28;20551;-69
2022/07/21 11:29:38;;;;;;;5.10;4.40;;;33.10;64.80;;;;;;5054629;28;20473;-70
2022/07/21 11:32:06;;;;;;;5.50;5.00;;;32.60;65.30;;;;;;5054611;28;20548;-69
2022/07/21 11:34:43;;;;;;;5.23;4.43;;;33.00;66.40;;;;;;5054348;28;20484;-69
2022/07/21 11:37:12;;;;;;;5.00;4.60;;;32.40;64.40;;;;;;5054291;28;20463;-69
2022/07/21 11:39:40;;;;;;;5.00;4.60;;;32.20;64.40;;;;;;5054037;28;20912;-69
2022/07/21 11:42:09;;;;;;;5.00;4.50;;;32.70;65.60;;;;;;5054142;28;20469;-69
2022/07/21 11:44:38;;;;;;;5.00;4.60;;;32.00;62.70;;;;;;5054093;28;20441;-69
2022/07/21 11:47:07;;;;;;;4.77;4.37;;;31.50;64.40;;;;;;5053905;28;20536;-70
2022/07/21 11:49:34;;;;;;;6.00;5.50;;;31.00;66.60;;;;;;5053909;28;20473;-69
2022/07/21 11:52:04;;;;;;;4.33;3.93;;;31.10;68.00;;;;;;5054055;28;20544;-68
2022/07/21 11:54:34;;;;;;;5.50;5.00;;;31.70;69.50;;;;;;5053930;28;20449;-68
2022/07/21 11:57:03;;;;;;;6.00;4.77;;;31.70;68.20;;;;;;5054029;28;20476;-67
2022/07/21 11:59:31;;;;;;;7.50;4.90;;;31.50;68.00;;;;;;5053978;28;20504;-67
2022/07/21 12:02:04;;;;;;;6.50;5.10;;;31.30;68.90;;;;;;5054211;28;20880;-68
2022/07/21 12:04:43;;;;;;;5.20;4.70;;;30.90;69.10;;;;;;5053770;28;20923;-67
2022/07/21 12:07:19;;;;;;;5.63;5.00;;;31.20;67.20;;;;;;5053814;28;20901;-68
2022/07/21 12:09:49;;;;;;;5.90;4.57;;;31.70;67.60;;;;;;5053951;28;20518;-68
2022/07/21 12:12:27;;;;;;;4.63;4.23;;;32.50;65.40;;;;;;5053995;28;20842;-68
2022/07/21 12:14:54;;;;;;;4.77;4.47;;;32.50;65.10;;;;;;5052686;28;20431;-68
2022/07/21 12:17:36;;;;;;;5.57;4.87;;;33.30;64.80;;;;;;5053361;28;20473;-67
2022/07/21 12:20:05;;;;;;;5.67;5.10;;;33.80;63.60;;;;;;5053673;28;20552;-68
2022/07/21 12:22:37;;;;;;;4.70;4.30;;;34.30;60.80;;;;;;5053567;28;20441;-68
2022/07/21 12:25:07;;;;;;;5.23;4.73;;;34.10;61.50;;;;;;5053232;28;20948;-68
2022/07/21 12:27:36;;;;;;;6.43;5.43;;;33.30;60.50;;;;;;5053537;28;20441;-70
2022/07/21 12:30:04;;;;;;;7.23;6.50;;;32.40;64.70;;;;;;5053124;28;20563;-69
2022/07/21 12:32:54;;;;;;;6.30;5.70;;;31.70;68.20;;;;;;5053041;28;20591;-69
2022/07/21 12:35:25;;;;;;;8.20;5.77;;;31.20;67.20;;;;;;5048452;28;20453;-69
2022/07/21 12:37:57;;;;;;;5.60;4.93;;;31.10;67.10;;;;;;5053324;28;20487;-68
2022/07/21 12:40:26;;;;;;;5.87;5.30;;;31.70;67.20;;;;;;5052980;28;20485;-68
2022/07/21 12:43:08;;;;;;;6.70;6.20;;;32.10;63.80;;;;;;5053383;28;20433;-68
2022/07/21 12:45:47;;;;;;;6.60;5.97;;;32.40;63.10;;;;;;5053586;28;20483;-69
2022/07/21 12:48:17;;;;;;;7.40;6.60;;;32.90;64.00;;;;;;5053540;28;20456;-69
2022/07/21 12:50:59;;;;;;;6.87;6.37;;;33.00;64.90;;;;;;5053835;28;20460;-69
2022/07/21 12:53:26;;;;;;;8.73;6.13;;;32.90;65.60;;;;;;5052981;28;20552;-69
2022/07/21 12:55:53;;;;;;;7.33;5.67;;;32.80;66.70;;;;;;5052953;28;20453;-69
2022/07/21 12:58:20;;;;;;;6.80;6.13;;;32.30;66.30;;;;;;5052830;28;20453;-69
2022/07/21 13:00:48;;;;;;;6.77;6.20;;;32.50;65.70;;;;;;5052762;28;20465;-69
2022/07/21 13:03:16;;;;;;;6.97;6.37;;;32.80;66.10;;;;;;5052780;28;20792;-69
2022/07/21 13:05:44;;;;;;;7.97;7.27;;;32.60;67.80;;;;;;5052716;28;20465;-69
2022/07/21 13:08:11;;;;;;;7.47;6.63;;;32.50;66.30;;;;;;5053134;28;20540;-69
2022/07/21 13:10:38;;;;;;;6.77;5.90;;;32.70;66.20;;;;;;5053008;28;20505;-69
2022/07/21 13:13:05;;;;;;;7.20;6.57;;;33.00;67.00;;;;;;5052530;28;20568;-69
2022/07/21 13:15:33;;;;;;;7.23;6.63;;;33.10;63.80;;;;;;5052610;28;20471;-69
2022/07/21 13:18:00;;;;;;;7.27;6.60;;;32.80;65.50;;;;;;5052666;28;20551;-69
2022/07/21 13:20:29;;;;;;;7.43;6.83;;;32.60;65.70;;;;;;5052430;28;20472;-69
2022/07/21 13:22:56;;;;;;;7.50;6.80;;;31.70;65.50;;;;;;5052815;28;20537;-69
2022/07/21 13:25:23;;;;;;;7.50;6.90;;;31.10;68.10;;;;;;5052317;28;20450;-67
2022/07/21 13:27:51;;;;;;;6.93;6.33;;;31.20;69.30;;;;;;5052699;28;20789;-69
2022/07/21 13:30:18;;;;;;;8.37;7.67;;;31.30;68.90;;;;;;5052402;28;20472;-67
2022/07/21 13:32:46;;;;;;;7.10;6.40;;;31.10;70.20;;;;;;5052483;28;20481;-68
2022/07/21 13:35:13;;;;;;;7.57;6.87;;;31.70;80.30;;;;;;5052772;28;20532;-68
2022/07/21 13:37:42;;;;;;;7.33;6.63;;;;;;;;;;5052616;28;20467;-67
2022/07/21 13:40:10;;;;;;;9.73;7.00;;;31.60;69.40;;;;;;5052316;28;20488;-69